Íslenskir flugvellir

Veldu flugvelli í þeirri röð sem þeir eiga að birtast og styddu á hnappinn

Uppfært síðast 30.07.2021 - kl. 20:51

SIGMET síðustu 6 klst.

Engin SIGMET skeyti bárust síðustu 6 klst.

Egilsstaðir

METAR síðustu 3 klst

TímiSkeyti
2021-07-30 20.00METAR BIEG 302000Z 01011KT CAVOK 11/07 Q1015
2021-07-30 19.00METAR BIEG 301900Z 35014KT CAVOK 13/07 Q1015
2021-07-30 18.00METAR BIEG 301800Z 35015KT CAVOK 13/06 Q1014

TAF

TAFBIEG2021-07-30 19.31Z30212101012KT CAVOK TX15/3115Z TN07/3103Z TEMPO 3103/3108 0200 FG VV001

Allur vindur er réttvísandi bæði í Metar og frá sjálfvirkum veðurstöðvum




Aðrir tengdir vefir



Þetta vefsvæði byggir á Eplica